Current | Forecast
Updated: 10:20 PM EET on December 13, 2017
Observed at LAPPEENRANTA, Finland
Temperature 34°F
Windchill 26°F
Humidity 100%
Dew Point 34°F
Wind SSW at 10 mph
Pressure 29.44 in (Steady)
Conditions Overcast
Visibility 6.2 miles
UV 0 out of 16
Clouds Overcast (OVC) : 400 ft
Yesterday's Maximum 36°F
Yesterday's Minimum 27°F approx.
Yesterday's Heating Degree Days 34 approx.
Sunrise9:09 AM EET
Sunset2:52 PM EET
Moon Rise2:46 AM EET
Moon Set1:44 PM EET
Moon PhaseMoon Phase
Waning Crescent
Raw METARMETAR EFLP 132020Z AUTO 21009KT 160V250 9999 OVC004 01/01 Q0997


Monday
. High: 50° F.
Tuesday
. High: 51° F.
Wednesday
. High: 51° F.
Thursday
. High: 62° F.
Friday
. High: 62° F.
Saturday
. High: 57° F.
Sunday
. High: 55° F.
Monday
. High: 53° F.

Click here for Marine Information
Scientific forecaster discussion (NWS)

Units: English | Metric

Find the Weather for any City, State or Zipcode, or Country:

U.S. State List | Severe Weather | Tropical Storms | Ski Conditions
United States | Canada | Central America | South America | Asia | Europe | Australia | Africa | Islands

Weather Underground

© Copyright 2017
The Weather Company, LLC